sensor_id;sensor_type;location;lat;lon;timestamp;temperature;humidity
8709;DHT22;4391;48.678;9.280;2023-06-26T00:01:57;17.60;34.90
8709;DHT22;4391;48.678;9.280;2023-06-26T00:04:24;17.60;1.00
8709;DHT22;4391;48.678;9.280;2023-06-26T00:06:51;17.60;1.00
8709;DHT22;4391;48.678;9.280;2023-06-26T00:09:17;17.50;99.90
8709;DHT22;4391;48.678;9.280;2023-06-26T00:11:45;17.50;99.90
8709;DHT22;4391;48.678;9.280;2023-06-26T00:14:12;17.40;99.90
8709;DHT22;4391;48.678;9.280;2023-06-26T00:16:39;17.40;99.90
8709;DHT22;4391;48.678;9.280;2023-06-26T00:19:08;17.40;59.20
8709;DHT22;4391;48.678;9.280;2023-06-26T00:21:34;17.30;1.00
8709;DHT22;4391;48.678;9.280;2023-06-26T00:24:01;17.20;1.00
8709;DHT22;4391;48.678;9.280;2023-06-26T00:26:28;17.20;1.00
8709;DHT22;4391;48.678;9.280;2023-06-26T00:28:59;17.20;99.90
8709;DHT22;4391;48.678;9.280;2023-06-26T00:31:25;17.20;1.00
8709;DHT22;4391;48.678;9.280;2023-06-26T00:33:52;17.20;99.90
8709;DHT22;4391;48.678;9.280;2023-06-26T00:36:19;17.10;99.90
8709;DHT22;4391;48.678;9.280;2023-06-26T00:38:48;17.10;99.90
8709;DHT22;4391;48.678;9.280;2023-06-26T00:41:15;17.00;1.00
8709;DHT22;4391;48.678;9.280;2023-06-26T00:43:42;17.00;99.90
8709;DHT22;4391;48.678;9.280;2023-06-26T00:46:12;17.00;1.00
8709;DHT22;4391;48.678;9.280;2023-06-26T00:48:42;17.00;99.90
8709;DHT22;4391;48.678;9.280;2023-06-26T00:51:09;17.00;99.90
8709;DHT22;4391;48.678;9.280;2023-06-26T00:53:38;17.00;1.00
8709;DHT22;4391;48.678;9.280;2023-06-26T00:56:05;17.10;18.60
8709;DHT22;4391;48.678;9.280;2023-06-26T00:58:32;17.00;1.00
8709;DHT22;4391;48.678;9.280;2023-06-26T01:00:59;16.80;99.90
8709;DHT22;4391;48.678;9.280;2023-06-26T01:03:27;16.80;99.90
8709;DHT22;4391;48.678;9.280;2023-06-26T01:05:56;16.80;64.10
8709;DHT22;4391;48.678;9.280;2023-06-26T01:08:25;16.80;99.90
8709;DHT22;4391;48.678;9.280;2023-06-26T01:10:53;16.70;1.00
8709;DHT22;4391;48.678;9.280;2023-06-26T01:13:20;16.70;1.00
8709;DHT22;4391;48.678;9.280;2023-06-26T01:15:47;16.70;97.50
8709;DHT22;4391;48.678;9.280;2023-06-26T01:18:14;16.60;99.90
8709;DHT22;4391;48.678;9.280;2023-06-26T01:20:44;16.60;99.90
8709;DHT22;4391;48.678;9.280;2023-06-26T01:23:15;16.60;64.10
8709;DHT22;4391;48.678;9.280;2023-06-26T01:25:54;16.50;99.90
8709;DHT22;4391;48.678;9.280;2023-06-26T01:28:25;16.50;29.00
8709;DHT22;4391;48.678;9.280;2023-06-26T01:30:52;16.50;99.90
8709;DHT22;4391;48.678;9.280;2023-06-26T01:33:23;16.50;1.00
8709;DHT22;4391;48.678;9.280;2023-06-26T01:35:50;16.40;1.00
8709;DHT22;4391;48.678;9.280;2023-06-26T01:38:18;16.40;1.00
8709;DHT22;4391;48.678;9.280;2023-06-26T01:40:46;16.40;1.00
8709;DHT22;4391;48.678;9.280;2023-06-26T01:43:20;16.40;1.00
8709;DHT22;4391;48.678;9.280;2023-06-26T01:45:55;16.30;99.90
8709;DHT22;4391;48.678;9.280;2023-06-26T01:48:25;16.20;99.90
8709;DHT22;4391;48.678;9.280;2023-06-26T01:50:56;16.20;99.90
8709;DHT22;4391;48.678;9.280;2023-06-26T01:53:25;16.20;99.90
8709;DHT22;4391;48.678;9.280;2023-06-26T01:55:57;16.20;1.00
8709;DHT22;4391;48.678;9.280;2023-06-26T01:58:27;16.20;1.00
8709;DHT22;4391;48.678;9.280;2023-06-26T02:00:56;16.10;28.10
8709;DHT22;4391;48.678;9.280;2023-06-26T02:03:22;16.10;43.60
8709;DHT22;4391;48.678;9.280;2023-06-26T02:05:50;16.10;99.90
8709;DHT22;4391;48.678;9.280;2023-06-26T02:08:17;16.00;99.90
8709;DHT22;4391;48.678;9.280;2023-06-26T02:10:44;16.00;99.10
8709;DHT22;4391;48.678;9.280;2023-06-26T02:13:10;15.90;99.90
8709;DHT22;4391;48.678;9.280;2023-06-26T02:15:37;16.00;99.90
8709;DHT22;4391;48.678;9.280;2023-06-26T02:18:07;15.90;99.90
8709;DHT22;4391;48.678;9.280;2023-06-26T02:20:33;15.90;99.90
8709;DHT22;4391;48.678;9.280;2023-06-26T02:23:00;15.80;99.90
8709;DHT22;4391;48.678;9.280;2023-06-26T02:25:27;15.80;99.90
8709;DHT22;4391;48.678;9.280;2023-06-26T02:27:54;15.70;99.90
8709;DHT22;4391;48.678;9.280;2023-06-26T02:30:21;15.70;99.90
8709;DHT22;4391;48.678;9.280;2023-06-26T02:32:47;15.70;1.00
8709;DHT22;4391;48.678;9.280;2023-06-26T02:35:16;15.60;1.00
8709;DHT22;4391;48.678;9.280;2023-06-26T02:37:43;15.60;1.00
8709;DHT22;4391;48.678;9.280;2023-06-26T02:40:10;15.60;1.00
8709;DHT22;4391;48.678;9.280;2023-06-26T02:42:37;15.60;99.90
8709;DHT22;4391;48.678;9.280;2023-06-26T02:48:26;15.50;1.00
8709;DHT22;4391;48.678;9.280;2023-06-26T02:50:54;15.50;1.00
8709;DHT22;4391;48.678;9.280;2023-06-26T02:53:21;15.50;1.00
8709;DHT22;4391;48.678;9.280;2023-06-26T02:55:48;15.40;1.00
8709;DHT22;4391;48.678;9.280;2023-06-26T02:58:14;15.40;1.00
8709;DHT22;4391;48.678;9.280;2023-06-26T03:00:41;15.40;1.00
8709;DHT22;4391;48.678;9.280;2023-06-26T03:03:08;15.40;1.00
8709;DHT22;4391;48.678;9.280;2023-06-26T03:05:35;15.40;1.00
8709;DHT22;4391;48.678;9.280;2023-06-26T03:08:04;15.30;1.00
8709;DHT22;4391;48.678;9.280;2023-06-26T03:10:31;15.30;1.00
8709;DHT22;4391;48.678;9.280;2023-06-26T03:12:57;15.30;1.00
8709;DHT22;4391;48.678;9.280;2023-06-26T03:15:24;15.20;1.00
8709;DHT22;4391;48.678;9.280;2023-06-26T03:17:51;15.20;1.00
8709;DHT22;4391;48.678;9.280;2023-06-26T03:20:18;15.20;1.00
8709;DHT22;4391;48.678;9.280;2023-06-26T03:22:45;15.20;1.00
8709;DHT22;4391;48.678;9.280;2023-06-26T03:25:13;15.20;1.00
8709;DHT22;4391;48.678;9.280;2023-06-26T03:27:40;15.20;1.00
8709;DHT22;4391;48.678;9.280;2023-06-26T03:30:08;15.10;1.00
8709;DHT22;4391;48.678;9.280;2023-06-26T03:32:34;15.10;1.00
8709;DHT22;4391;48.678;9.280;2023-06-26T03:35:01;15.20;1.00
8709;DHT22;4391;48.678;9.280;2023-06-26T03:37:29;15.10;1.00
8709;DHT22;4391;48.678;9.280;2023-06-26T03:39:56;15.10;1.00
8709;DHT22;4391;48.678;9.280;2023-06-26T03:42:24;15.10;1.00
8709;DHT22;4391;48.678;9.280;2023-06-26T03:44:51;15.20;1.00
8709;DHT22;4391;48.678;9.280;2023-06-26T03:47:17;15.20;1.00
8709;DHT22;4391;48.678;9.280;2023-06-26T03:49:44;15.20;1.00
8709;DHT22;4391;48.678;9.280;2023-06-26T03:52:11;15.20;1.00
8709;DHT22;4391;48.678;9.280;2023-06-26T03:54:38;15.30;1.00
8709;DHT22;4391;48.678;9.280;2023-06-26T03:57:05;15.40;1.00
8709;DHT22;4391;48.678;9.280;2023-06-26T03:59:33;15.40;1.00
8709;DHT22;4391;48.678;9.280;2023-06-26T04:01:59;15.40;1.00
8709;DHT22;4391;48.678;9.280;2023-06-26T04:04:26;15.50;1.00
8709;DHT22;4391;48.678;9.280;2023-06-26T04:06:53;15.50;1.00
8709;DHT22;4391;48.678;9.280;2023-06-26T04:09:20;15.70;99.90
8709;DHT22;4391;48.678;9.280;2023-06-26T04:11:47;15.90;99.90
8709;DHT22;4391;48.678;9.280;2023-06-26T04:14:14;16.10;99.90
8709;DHT22;4391;48.678;9.280;2023-06-26T04:16:42;16.30;1.00
8709;DHT22;4391;48.678;9.280;2023-06-26T04:19:09;16.50;1.00
8709;DHT22;4391;48.678;9.280;2023-06-26T04:21:35;16.70;8.40
8709;DHT22;4391;48.678;9.280;2023-06-26T04:24:02;16.80;99.90
8709;DHT22;4391;48.678;9.280;2023-06-26T04:26:29;16.90;1.00
8709;DHT22;4391;48.678;9.280;2023-06-26T04:28:56;16.90;99.90
8709;DHT22;4391;48.678;9.280;2023-06-26T04:31:23;17.00;6.10
8709;DHT22;4391;48.678;9.280;2023-06-26T04:33:51;17.00;25.50
8709;DHT22;4391;48.678;9.280;2023-06-26T04:36:20;17.00;99.90
8709;DHT22;4391;48.678;9.280;2023-06-26T04:38:50;17.10;99.90
8709;DHT22;4391;48.678;9.280;2023-06-26T04:41:16;17.20;1.00
8709;DHT22;4391;48.678;9.280;2023-06-26T04:43:43;17.20;20.40
8709;DHT22;4391;48.678;9.280;2023-06-26T04:46:10;17.40;1.00
8709;DHT22;4391;48.678;9.280;2023-06-26T04:48:37;17.50;99.90
8709;DHT22;4391;48.678;9.280;2023-06-26T04:51:05;17.60;99.90
8709;DHT22;4391;48.678;9.280;2023-06-26T04:53:32;17.60;99.90
8709;DHT22;4391;48.678;9.280;2023-06-26T04:55:58;17.70;90.00
8709;DHT22;4391;48.678;9.280;2023-06-26T04:58:25;17.90;1.00
8709;DHT22;4391;48.678;9.280;2023-06-26T05:00:52;18.00;1.00
8709;DHT22;4391;48.678;9.280;2023-06-26T05:03:19;18.00;1.00
8709;DHT22;4391;48.678;9.280;2023-06-26T05:05:47;18.10;1.00
8709;DHT22;4391;48.678;9.280;2023-06-26T05:08:16;18.20;1.00
8709;DHT22;4391;48.678;9.280;2023-06-26T05:10:44;18.30;1.00
8709;DHT22;4391;48.678;9.280;2023-06-26T05:13:10;18.40;1.00
8709;DHT22;4391;48.678;9.280;2023-06-26T05:15:40;18.60;1.00
8709;DHT22;4391;48.678;9.280;2023-06-26T05:18:07;18.80;1.00
8709;DHT22;4391;48.678;9.280;2023-06-26T05:20:35;18.80;1.00
8709;DHT22;4391;48.678;9.280;2023-06-26T05:23:02;18.90;1.00
8709;DHT22;4391;48.678;9.280;2023-06-26T05:25:31;19.10;99.90
8709;DHT22;4391;48.678;9.280;2023-06-26T05:27:59;19.30;99.90
8709;DHT22;4391;48.678;9.280;2023-06-26T05:30:27;19.50;99.90
8709;DHT22;4391;48.678;9.280;2023-06-26T05:32:56;19.70;1.00
8709;DHT22;4391;48.678;9.280;2023-06-26T05:35:26;19.80;48.80
8709;DHT22;4391;48.678;9.280;2023-06-26T05:37:55;20.00;1.00
8709;DHT22;4391;48.678;9.280;2023-06-26T05:40:23;20.10;1.00
8709;DHT22;4391;48.678;9.280;2023-06-26T05:42:53;20.30;1.00
8709;DHT22;4391;48.678;9.280;2023-06-26T05:45:20;20.40;1.00
8709;DHT22;4391;48.678;9.280;2023-06-26T05:47:46;20.50;99.90
8709;DHT22;4391;48.678;9.280;2023-06-26T05:50:16;20.60;99.90
8709;DHT22;4391;48.678;9.280;2023-06-26T05:52:44;20.60;99.90
8709;DHT22;4391;48.678;9.280;2023-06-26T05:55:12;20.70;99.90
8709;DHT22;4391;48.678;9.280;2023-06-26T05:57:40;20.80;99.90
8709;DHT22;4391;48.678;9.280;2023-06-26T06:00:10;20.90;99.90
8709;DHT22;4391;48.678;9.280;2023-06-26T06:02:37;21.10;99.90
8709;DHT22;4391;48.678;9.280;2023-06-26T06:05:05;21.20;99.90
8709;DHT22;4391;48.678;9.280;2023-06-26T06:07:32;21.40;99.90
8709;DHT22;4391;48.678;9.280;2023-06-26T06:09:59;21.50;99.90
8709;DHT22;4391;48.678;9.280;2023-06-26T06:12:26;21.70;99.90
8709;DHT22;4391;48.678;9.280;2023-06-26T06:14:53;21.90;99.90
8709;DHT22;4391;48.678;9.280;2023-06-26T06:17:21;22.10;99.90
8709;DHT22;4391;48.678;9.280;2023-06-26T06:19:48;22.30;99.90
8709;DHT22;4391;48.678;9.280;2023-06-26T06:22:15;22.40;99.90
8709;DHT22;4391;48.678;9.280;2023-06-26T06:24:43;22.50;99.90
8709;DHT22;4391;48.678;9.280;2023-06-26T06:27:10;22.50;99.90
8709;DHT22;4391;48.678;9.280;2023-06-26T06:29:37;22.40;99.90
8709;DHT22;4391;48.678;9.280;2023-06-26T06:32:04;22.50;99.90
8709;DHT22;4391;48.678;9.280;2023-06-26T06:34:32;22.50;99.90
8709;DHT22;4391;48.678;9.280;2023-06-26T06:36:59;22.60;99.90
8709;DHT22;4391;48.678;9.280;2023-06-26T06:39:26;22.70;99.90
8709;DHT22;4391;48.678;9.280;2023-06-26T06:41:52;22.80;99.90
8709;DHT22;4391;48.678;9.280;2023-06-26T06:44:19;22.90;99.90
8709;DHT22;4391;48.678;9.280;2023-06-26T06:46:46;23.10;99.90
8709;DHT22;4391;48.678;9.280;2023-06-26T06:49:13;23.30;99.90
8709;DHT22;4391;48.678;9.280;2023-06-26T06:51:41;23.50;99.90
8709;DHT22;4391;48.678;9.280;2023-06-26T06:54:08;23.70;99.90
8709;DHT22;4391;48.678;9.280;2023-06-26T06:56:35;23.90;99.90
8709;DHT22;4391;48.678;9.280;2023-06-26T06:59:02;24.00;99.90
8709;DHT22;4391;48.678;9.280;2023-06-26T07:01:29;24.30;99.90
8709;DHT22;4391;48.678;9.280;2023-06-26T07:03:56;24.40;99.90
8709;DHT22;4391;48.678;9.280;2023-06-26T07:06:23;24.60;99.90
8709;DHT22;4391;48.678;9.280;2023-06-26T07:08:51;24.80;99.90
8709;DHT22;4391;48.678;9.280;2023-06-26T07:11:18;25.10;99.90
8709;DHT22;4391;48.678;9.280;2023-06-26T07:13:44;25.30;99.90
8709;DHT22;4391;48.678;9.280;2023-06-26T07:16:11;25.40;99.90
8709;DHT22;4391;48.678;9.280;2023-06-26T07:18:40;25.60;99.90
8709;DHT22;4391;48.678;9.280;2023-06-26T07:21:07;25.80;99.90
8709;DHT22;4391;48.678;9.280;2023-06-26T07:23:34;26.00;99.90
8709;DHT22;4391;48.678;9.280;2023-06-26T07:26:03;26.20;99.90
8709;DHT22;4391;48.678;9.280;2023-06-26T07:28:29;26.40;99.90
8709;DHT22;4391;48.678;9.280;2023-06-26T07:30:59;26.70;99.90
8709;DHT22;4391;48.678;9.280;2023-06-26T07:33:25;26.90;99.90
8709;DHT22;4391;48.678;9.280;2023-06-26T07:35:52;27.20;99.90
8709;DHT22;4391;48.678;9.280;2023-06-26T07:38:19;27.50;99.90
8709;DHT22;4391;48.678;9.280;2023-06-26T07:40:46;27.70;99.90
8709;DHT22;4391;48.678;9.280;2023-06-26T07:43:14;27.90;99.90
8709;DHT22;4391;48.678;9.280;2023-06-26T07:45:40;28.20;99.90
8709;DHT22;4391;48.678;9.280;2023-06-26T07:48:07;28.30;99.90
8709;DHT22;4391;48.678;9.280;2023-06-26T07:50:34;28.50;99.90
8709;DHT22;4391;48.678;9.280;2023-06-26T07:53:04;28.60;99.90
8709;DHT22;4391;48.678;9.280;2023-06-26T07:55:31;28.90;99.90
8709;DHT22;4391;48.678;9.280;2023-06-26T07:57:58;29.20;99.90
8709;DHT22;4391;48.678;9.280;2023-06-26T08:00:28;29.50;99.90
8709;DHT22;4391;48.678;9.280;2023-06-26T08:02:55;29.70;99.90
8709;DHT22;4391;48.678;9.280;2023-06-26T08:05:21;30.00;99.90
8709;DHT22;4391;48.678;9.280;2023-06-26T08:07:48;29.90;99.90
8709;DHT22;4391;48.678;9.280;2023-06-26T08:10:15;30.30;99.90
8709;DHT22;4391;48.678;9.280;2023-06-26T08:12:42;30.50;99.90
8709;DHT22;4391;48.678;9.280;2023-06-26T08:15:11;30.60;99.90
8709;DHT22;4391;48.678;9.280;2023-06-26T08:17:39;30.60;99.90
8709;DHT22;4391;48.678;9.280;2023-06-26T08:20:06;30.90;99.90
8709;DHT22;4391;48.678;9.280;2023-06-26T08:22:34;31.10;99.90
8709;DHT22;4391;48.678;9.280;2023-06-26T08:25:02;31.40;99.90
8709;DHT22;4391;48.678;9.280;2023-06-26T08:27:29;31.60;99.90
8709;DHT22;4391;48.678;9.280;2023-06-26T08:29:56;31.60;99.90
8709;DHT22;4391;48.678;9.280;2023-06-26T08:32:23;31.50;99.90
8709;DHT22;4391;48.678;9.280;2023-06-26T08:34:52;31.80;99.90
8709;DHT22;4391;48.678;9.280;2023-06-26T08:37:18;31.50;99.90
8709;DHT22;4391;48.678;9.280;2023-06-26T08:39:45;31.80;99.90
8709;DHT22;4391;48.678;9.280;2023-06-26T08:42:12;32.20;99.90
8709;DHT22;4391;48.678;9.280;2023-06-26T08:44:39;32.60;99.90
8709;DHT22;4391;48.678;9.280;2023-06-26T08:47:06;32.50;99.90
8709;DHT22;4391;48.678;9.280;2023-06-26T08:49:39;32.70;99.90
8709;DHT22;4391;48.678;9.280;2023-06-26T08:52:17;32.60;99.90
8709;DHT22;4391;48.678;9.280;2023-06-26T08:54:49;32.30;99.90
8709;DHT22;4391;48.678;9.280;2023-06-26T08:57:19;31.90;99.90
8709;DHT22;4391;48.678;9.280;2023-06-26T08:59:47;31.90;99.90
8709;DHT22;4391;48.678;9.280;2023-06-26T09:02:15;32.30;99.90
8709;DHT22;4391;48.678;9.280;2023-06-26T09:04:42;32.60;99.90
8709;DHT22;4391;48.678;9.280;2023-06-26T09:07:09;32.80;99.90
8709;DHT22;4391;48.678;9.280;2023-06-26T09:09:37;33.00;99.90
8709;DHT22;4391;48.678;9.280;2023-06-26T09:12:05;33.20;99.90
8709;DHT22;4391;48.678;9.280;2023-06-26T09:14:32;33.20;99.90
8709;DHT22;4391;48.678;9.280;2023-06-26T09:16:58;33.20;99.90
8709;DHT22;4391;48.678;9.280;2023-06-26T09:19:26;33.40;99.90
8709;DHT22;4391;48.678;9.280;2023-06-26T09:21:54;33.40;99.90
8709;DHT22;4391;48.678;9.280;2023-06-26T09:24:22;33.40;99.90
8709;DHT22;4391;48.678;9.280;2023-06-26T09:26:51;33.60;99.90
8709;DHT22;4391;48.678;9.280;2023-06-26T09:29:19;33.40;99.90
8709;DHT22;4391;48.678;9.280;2023-06-26T09:31:46;33.40;99.90
8709;DHT22;4391;48.678;9.280;2023-06-26T09:34:14;33.60;99.90
8709;DHT22;4391;48.678;9.280;2023-06-26T09:36:41;33.80;99.90
8709;DHT22;4391;48.678;9.280;2023-06-26T09:39:12;34.50;99.90
8709;DHT22;4391;48.678;9.280;2023-06-26T09:41:41;35.10;99.90
8709;DHT22;4391;48.678;9.280;2023-06-26T09:44:11;35.10;99.90
8709;DHT22;4391;48.678;9.280;2023-06-26T09:46:39;35.30;99.90
8709;DHT22;4391;48.678;9.280;2023-06-26T09:49:07;35.50;99.90
8709;DHT22;4391;48.678;9.280;2023-06-26T09:51:35;35.10;99.90
8709;DHT22;4391;48.678;9.280;2023-06-26T09:54:03;34.40;99.90
8709;DHT22;4391;48.678;9.280;2023-06-26T09:56:31;33.90;99.90
8709;DHT22;4391;48.678;9.280;2023-06-26T09:58:59;34.50;99.90
8709;DHT22;4391;48.678;9.280;2023-06-26T10:01:29;35.10;99.90
8709;DHT22;4391;48.678;9.280;2023-06-26T10:03:57;35.30;99.90
8709;DHT22;4391;48.678;9.280;2023-06-26T10:06:27;35.30;99.90
8709;DHT22;4391;48.678;9.280;2023-06-26T10:08:56;35.10;99.90
8709;DHT22;4391;48.678;9.280;2023-06-26T10:11:23;34.80;99.90
8709;DHT22;4391;48.678;9.280;2023-06-26T10:13:54;35.20;99.90
8709;DHT22;4391;48.678;9.280;2023-06-26T10:16:26;35.60;99.90
8709;DHT22;4391;48.678;9.280;2023-06-26T10:18:59;35.50;99.90
8709;DHT22;4391;48.678;9.280;2023-06-26T10:21:29;35.30;99.90
8709;DHT22;4391;48.678;9.280;2023-06-26T10:23:58;35.50;99.90
8709;DHT22;4391;48.678;9.280;2023-06-26T10:26:26;35.30;99.90
8709;DHT22;4391;48.678;9.280;2023-06-26T10:28:55;35.30;99.90
8709;DHT22;4391;48.678;9.280;2023-06-26T10:31:25;34.80;99.90
8709;DHT22;4391;48.678;9.280;2023-06-26T10:33:53;34.40;99.90
8709;DHT22;4391;48.678;9.280;2023-06-26T10:36:28;33.90;99.90
8709;DHT22;4391;48.678;9.280;2023-06-26T10:38:57;33.20;99.90
8709;DHT22;4391;48.678;9.280;2023-06-26T10:41:25;32.70;99.90
8709;DHT22;4391;48.678;9.280;2023-06-26T10:44:08;32.10;99.90
8709;DHT22;4391;48.678;9.280;2023-06-26T10:46:49;31.60;99.90
8709;DHT22;4391;48.678;9.280;2023-06-26T10:49:18;31.50;99.90
8709;DHT22;4391;48.678;9.280;2023-06-26T10:51:49;31.50;99.90
8709;DHT22;4391;48.678;9.280;2023-06-26T10:54:17;31.90;99.90
8709;DHT22;4391;48.678;9.280;2023-06-26T10:56:46;33.00;99.90
8709;DHT22;4391;48.678;9.280;2023-06-26T10:59:19;33.20;99.90
8709;DHT22;4391;48.678;9.280;2023-06-26T11:01:47;32.80;99.90
8709;DHT22;4391;48.678;9.280;2023-06-26T11:04:36;32.50;99.90
8709;DHT22;4391;48.678;9.280;2023-06-26T11:07:19;32.00;99.90
8709;DHT22;4391;48.678;9.280;2023-06-26T11:09:56;31.40;99.90
8709;DHT22;4391;48.678;9.280;2023-06-26T11:12:37;31.00;99.90
8709;DHT22;4391;48.678;9.280;2023-06-26T11:15:06;30.90;99.90
8709;DHT22;4391;48.678;9.280;2023-06-26T11:17:34;30.80;99.90
8709;DHT22;4391;48.678;9.280;2023-06-26T11:20:01;31.30;99.90
8709;DHT22;4391;48.678;9.280;2023-06-26T11:22:31;32.90;99.90
8709;DHT22;4391;48.678;9.280;2023-06-26T11:25:01;34.60;99.90
8709;DHT22;4391;48.678;9.280;2023-06-26T11:27:31;36.10;99.90
8709;DHT22;4391;48.678;9.280;2023-06-26T11:29:58;37.40;99.90
8709;DHT22;4391;48.678;9.280;2023-06-26T11:32:26;37.90;99.90
8709;DHT22;4391;48.678;9.280;2023-06-26T11:34:54;38.30;99.90
8709;DHT22;4391;48.678;9.280;2023-06-26T11:37:21;38.10;99.90
8709;DHT22;4391;48.678;9.280;2023-06-26T11:39:51;37.60;99.90
8709;DHT22;4391;48.678;9.280;2023-06-26T11:42:18;37.80;99.90
8709;DHT22;4391;48.678;9.280;2023-06-26T11:44:45;38.20;99.90
8709;DHT22;4391;48.678;9.280;2023-06-26T11:47:15;38.70;99.90
8709;DHT22;4391;48.678;9.280;2023-06-26T11:49:42;39.50;99.90
8709;DHT22;4391;48.678;9.280;2023-06-26T11:52:09;39.80;99.90
8709;DHT22;4391;48.678;9.280;2023-06-26T11:54:36;40.00;99.90
8709;DHT22;4391;48.678;9.280;2023-06-26T11:57:05;40.10;99.90
8709;DHT22;4391;48.678;9.280;2023-06-26T11:59:34;40.00;99.90
8709;DHT22;4391;48.678;9.280;2023-06-26T12:02:05;38.50;99.90
8709;DHT22;4391;48.678;9.280;2023-06-26T12:04:33;38.00;99.90
8709;DHT22;4391;48.678;9.280;2023-06-26T12:07:01;38.50;99.90
8709;DHT22;4391;48.678;9.280;2023-06-26T12:09:29;39.70;99.90
8709;DHT22;4391;48.678;9.280;2023-06-26T12:11:58;40.00;99.90
8709;DHT22;4391;48.678;9.280;2023-06-26T12:14:27;39.30;99.90
8709;DHT22;4391;48.678;9.280;2023-06-26T12:16:55;39.40;99.90
8709;DHT22;4391;48.678;9.280;2023-06-26T12:19:25;39.40;99.90
8709;DHT22;4391;48.678;9.280;2023-06-26T12:21:52;38.70;99.90
8709;DHT22;4391;48.678;9.280;2023-06-26T12:24:22;38.50;99.90
8709;DHT22;4391;48.678;9.280;2023-06-26T12:26:52;39.20;99.90
8709;DHT22;4391;48.678;9.280;2023-06-26T12:29:21;39.20;99.90
8709;DHT22;4391;48.678;9.280;2023-06-26T12:31:53;39.20;99.90
8709;DHT22;4391;48.678;9.280;2023-06-26T12:34:20;38.50;99.90
8709;DHT22;4391;48.678;9.280;2023-06-26T12:36:49;37.30;99.90
8709;DHT22;4391;48.678;9.280;2023-06-26T12:39:16;36.50;97.40
8709;DHT22;4391;48.678;9.280;2023-06-26T12:41:45;35.30;93.40
8709;DHT22;4391;48.678;9.280;2023-06-26T12:44:22;35.60;95.70
8709;DHT22;4391;48.678;9.280;2023-06-26T12:46:54;35.80;97.10
8709;DHT22;4391;48.678;9.280;2023-06-26T12:49:29;36.70;99.90
8709;DHT22;4391;48.678;9.280;2023-06-26T12:51:57;37.90;99.90
8709;DHT22;4391;48.678;9.280;2023-06-26T12:54:24;38.90;99.90
8709;DHT22;4391;48.678;9.280;2023-06-26T12:56:51;39.20;99.90
8709;DHT22;4391;48.678;9.280;2023-06-26T12:59:18;40.20;99.90
8709;DHT22;4391;48.678;9.280;2023-06-26T13:01:45;40.10;99.90
8709;DHT22;4391;48.678;9.280;2023-06-26T13:04:13;40.40;99.90
8709;DHT22;4391;48.678;9.280;2023-06-26T13:06:40;40.10;99.90
8709;DHT22;4391;48.678;9.280;2023-06-26T13:09:07;40.70;99.90
8709;DHT22;4391;48.678;9.280;2023-06-26T13:11:34;41.60;99.90
8709;DHT22;4391;48.678;9.280;2023-06-26T13:14:01;42.20;99.90
8709;DHT22;4391;48.678;9.280;2023-06-26T13:16:28;42.30;99.90
8709;DHT22;4391;48.678;9.280;2023-06-26T13:18:57;41.70;99.90
8709;DHT22;4391;48.678;9.280;2023-06-26T13:21:26;39.90;99.90
8709;DHT22;4391;48.678;9.280;2023-06-26T13:23:53;39.80;99.90
8709;DHT22;4391;48.678;9.280;2023-06-26T13:26:20;40.00;99.90
8709;DHT22;4391;48.678;9.280;2023-06-26T13:28:47;40.70;99.90
8709;DHT22;4391;48.678;9.280;2023-06-26T13:31:14;40.10;99.90
8709;DHT22;4391;48.678;9.280;2023-06-26T13:33:40;38.80;99.80
8709;DHT22;4391;48.678;9.280;2023-06-26T13:36:08;37.20;93.40
8709;DHT22;4391;48.678;9.280;2023-06-26T13:38:36;37.20;94.00
8709;DHT22;4391;48.678;9.280;2023-06-26T13:41:03;37.60;96.60
8709;DHT22;4391;48.678;9.280;2023-06-26T13:43:30;37.10;95.50
8709;DHT22;4391;48.678;9.280;2023-06-26T13:45:57;37.00;95.10
8709;DHT22;4391;48.678;9.280;2023-06-26T13:48:23;37.00;95.40
8709;DHT22;4391;48.678;9.280;2023-06-26T13:50:53;36.90;99.90
8709;DHT22;4391;48.678;9.280;2023-06-26T13:53:20;37.30;96.90
8709;DHT22;4391;48.678;9.280;2023-06-26T13:55:48;36.60;94.60
8709;DHT22;4391;48.678;9.280;2023-06-26T13:58:15;37.10;96.70
8709;DHT22;4391;48.678;9.280;2023-06-26T14:00:42;37.50;98.90
8709;DHT22;4391;48.678;9.280;2023-06-26T14:03:10;37.90;99.90
8709;DHT22;4391;48.678;9.280;2023-06-26T14:05:37;38.40;99.90
8709;DHT22;4391;48.678;9.280;2023-06-26T14:08:06;38.50;99.90
8709;DHT22;4391;48.678;9.280;2023-06-26T14:10:33;38.60;99.90
8709;DHT22;4391;48.678;9.280;2023-06-26T14:13:02;39.30;99.90
8709;DHT22;4391;48.678;9.280;2023-06-26T14:15:29;39.80;99.90
8709;DHT22;4391;48.678;9.280;2023-06-26T14:17:56;40.10;99.90
8709;DHT22;4391;48.678;9.280;2023-06-26T14:20:23;39.30;99.90
8709;DHT22;4391;48.678;9.280;2023-06-26T14:22:53;39.00;99.60
8709;DHT22;4391;48.678;9.280;2023-06-26T14:25:20;38.90;99.00
8709;DHT22;4391;48.678;9.280;2023-06-26T14:27:46;38.60;98.30
8709;DHT22;4391;48.678;9.280;2023-06-26T14:30:15;38.70;97.40
8709;DHT22;4391;48.678;9.280;2023-06-26T14:32:41;39.20;99.10
8709;DHT22;4391;48.678;9.280;2023-06-26T14:35:08;39.40;99.90
8709;DHT22;4391;48.678;9.280;2023-06-26T14:37:36;39.80;99.90
8709;DHT22;4391;48.678;9.280;2023-06-26T14:40:06;39.50;98.40
8709;DHT22;4391;48.678;9.280;2023-06-26T14:42:33;39.00;96.70
8709;DHT22;4391;48.678;9.280;2023-06-26T14:45:00;38.40;93.10
8709;DHT22;4391;48.678;9.280;2023-06-26T14:47:28;38.20;92.50
8709;DHT22;4391;48.678;9.280;2023-06-26T14:49:55;38.50;93.50
8709;DHT22;4391;48.678;9.280;2023-06-26T14:52:22;38.00;91.50
8709;DHT22;4391;48.678;9.280;2023-06-26T14:54:49;37.90;90.60
8709;DHT22;4391;48.678;9.280;2023-06-26T14:57:16;37.40;87.10
8709;DHT22;4391;48.678;9.280;2023-06-26T14:59:43;36.70;80.30
8709;DHT22;4391;48.678;9.280;2023-06-26T15:02:10;36.00;75.00
8709;DHT22;4391;48.678;9.280;2023-06-26T15:04:38;35.30;68.90
8709;DHT22;4391;48.678;9.280;2023-06-26T15:07:05;34.70;64.50
8709;DHT22;4391;48.678;9.280;2023-06-26T15:09:32;33.70;57.80
8709;DHT22;4391;48.678;9.280;2023-06-26T15:11:59;33.10;54.60
8709;DHT22;4391;48.678;9.280;2023-06-26T15:14:27;32.70;53.40
8709;DHT22;4391;48.678;9.280;2023-06-26T15:16:53;32.50;53.90
8709;DHT22;4391;48.678;9.280;2023-06-26T15:19:20;32.30;54.00
8709;DHT22;4391;48.678;9.280;2023-06-26T15:21:48;32.10;53.00
8709;DHT22;4391;48.678;9.280;2023-06-26T15:24:15;31.90;52.30
8709;DHT22;4391;48.678;9.280;2023-06-26T15:26:42;31.50;51.40
8709;DHT22;4391;48.678;9.280;2023-06-26T15:29:09;31.40;51.40
8709;DHT22;4391;48.678;9.280;2023-06-26T15:31:36;31.30;52.50
8709;DHT22;4391;48.678;9.280;2023-06-26T15:34:03;30.90;50.10
8709;DHT22;4391;48.678;9.280;2023-06-26T15:36:30;30.60;49.40
8709;DHT22;4391;48.678;9.280;2023-06-26T15:38:58;30.40;49.50
8709;DHT22;4391;48.678;9.280;2023-06-26T15:41:25;30.20;49.30
8709;DHT22;4391;48.678;9.280;2023-06-26T15:43:54;30.00;49.60
8709;DHT22;4391;48.678;9.280;2023-06-26T15:46:21;29.90;49.30
8709;DHT22;4391;48.678;9.280;2023-06-26T15:48:47;29.80;50.20
8709;DHT22;4391;48.678;9.280;2023-06-26T15:51:14;29.70;50.60
8709;DHT22;4391;48.678;9.280;2023-06-26T15:53:42;29.60;51.40
8709;DHT22;4391;48.678;9.280;2023-06-26T15:56:11;29.50;52.20
8709;DHT22;4391;48.678;9.280;2023-06-26T15:58:38;29.50;52.70
8709;DHT22;4391;48.678;9.280;2023-06-26T16:01:07;29.50;53.40
8709;DHT22;4391;48.678;9.280;2023-06-26T16:03:35;29.50;54.20
8709;DHT22;4391;48.678;9.280;2023-06-26T16:06:02;29.50;55.20
8709;DHT22;4391;48.678;9.280;2023-06-26T16:08:28;29.40;55.50
8709;DHT22;4391;48.678;9.280;2023-06-26T16:10:55;29.30;55.40
8709;DHT22;4391;48.678;9.280;2023-06-26T16:13:24;29.00;54.50